Time;durP1;ratioP1;P1;durP2;ratioP2;P2;SDS_P1;SDS_P2;PMS_P1;PMS_P2;Temp;Humidity;BMP_temperature;BMP_pressure;BME280_temperature;BME280_humidity;BME280_pressure;Samples;Min_cycle;Max_cycle;Signal;HPM_P1;HPM_P2
2022/08/23 00:01:05;;;;;;;0.90;0.90;;;;;;;;;;4969715;28;20221;-70
2022/08/23 00:03:33;;;;;;;1.17;1.10;;;;;;;;;;4969183;28;20313;-68
2022/08/23 00:06:00;;;;;;;1.05;1.05;;;;;;;;;;4969755;28;20237;-67
2022/08/23 00:08:28;;;;;;;0.93;0.93;;;;;;;;;;4968964;28;20207;-69
2022/08/23 00:10:55;;;;;;;1.00;1.00;;;;;;;;;;4969688;28;20233;-70
2022/08/23 00:13:23;;;;;;;1.10;1.10;;;;;;;;;;4969410;28;20234;-71
2022/08/23 00:15:51;;;;;;;1.90;1.20;;;;;;;;;;4970465;28;20361;-69
2022/08/23 00:18:19;;;;;;;1.27;1.27;;;;;;;;;;4970139;28;20234;-70
2022/08/23 00:20:46;;;;;;;1.30;1.20;;;;;;;;;;4970304;28;20242;-70
2022/08/23 00:23:13;;;;;;;1.42;1.10;;;;;;;;;;4970245;28;20209;-70
2022/08/23 00:25:40;;;;;;;1.10;1.10;;;;;;;;;;4970293;28;20365;-70
2022/08/23 00:28:08;;;;;;;1.05;1.05;;;;;;;;;;4970093;28;20293;-70
2022/08/23 00:30:35;;;;;;;1.13;1.13;;;;;;;;;;4970240;28;20232;-70
2022/08/23 00:33:04;;;;;;;1.00;1.00;;;;;;;;;;4970261;28;20226;-70
2022/08/23 00:35:31;;;;;;;1.70;1.17;;;;;;;;;;4969829;28;20228;-70
2022/08/23 00:37:59;;;;;;;1.33;1.08;;;;;;;;;;4966877;28;20210;-70
2022/08/23 00:40:26;;;;;;;2.38;0.95;;;;;;;;;;4958948;28;20231;-70
2022/08/23 00:48:28;;;;;;;1.10;1.10;;;;;;;;;;4969963;28;20242;-70
2022/08/23 00:50:59;;;;;;;1.50;1.05;;;;;;;;;;4969852;28;20731;-70
2022/08/23 00:53:27;;;;;;;1.13;1.10;;;;;;;;;;4969414;28;20218;-70
2022/08/23 00:55:57;;;;;;;1.05;1.05;;;;;;;;;;4969842;28;20265;-70
2022/08/23 00:58:24;;;;;;;1.33;1.33;;;;;;;;;;4969334;28;20222;-70
2022/08/23 01:00:53;;;;;;;2.58;1.35;;;;;;;;;;4969900;28;20218;-70
2022/08/23 01:03:20;;;;;;;1.23;1.23;;;;;;;;;;4969489;28;20408;-70
2022/08/23 01:05:52;;;;;;;1.13;1.13;;;;;;;;;;4969588;28;20230;-70
2022/08/23 01:08:20;;;;;;;1.02;1.02;;;;;;;;;;4969591;28;20293;-70
2022/08/23 01:10:49;;;;;;;1.48;1.33;;;;;;;;;;4969675;28;20210;-70
2022/08/23 01:13:18;;;;;;;1.50;1.00;;;;;;;;;;4969645;28;20260;-70
2022/08/23 01:15:47;;;;;;;1.75;1.40;;;;;;;;;;4969326;28;20217;-70
2022/08/23 01:18:16;;;;;;;1.75;1.30;;;;;;;;;;4969606;28;20230;-70
2022/08/23 01:20:44;;;;;;;1.73;1.20;;;;;;;;;;4968778;28;20242;-69
2022/08/23 01:23:21;;;;;;;0.85;0.85;;;;;;;;;;4969506;28;20820;-70
2022/08/23 01:25:48;;;;;;;1.10;1.10;;;;;;;;;;4969418;28;20218;-70
2022/08/23 01:28:17;;;;;;;1.23;1.23;;;;;;;;;;4969357;28;20220;-70
2022/08/23 01:30:45;;;;;;;1.00;1.00;;;;;;;;;;4969683;28;20955;-70
2022/08/23 01:33:12;;;;;;;1.67;1.30;;;;;;;;;;4969370;28;20216;-70
2022/08/23 01:35:40;;;;;;;1.77;1.30;;;;;;;;;;4967945;28;20281;-70
2022/08/23 01:38:08;;;;;;;1.13;1.13;;;;;;;;;;4969336;28;20249;-70
2022/08/23 01:40:37;;;;;;;0.93;0.93;;;;;;;;;;4969775;28;20217;-70
2022/08/23 01:43:04;;;;;;;0.98;0.95;;;;;;;;;;4969415;28;20210;-71
2022/08/23 01:45:32;;;;;;;2.35;1.40;;;;;;;;;;4963478;28;20234;-70
2022/08/23 01:47:59;;;;;;;1.27;1.27;;;;;;;;;;4968685;28;20210;-70
2022/08/23 01:50:27;;;;;;;2.33;1.38;;;;;;;;;;4968717;28;20853;-70
2022/08/23 01:52:54;;;;;;;1.05;0.93;;;;;;;;;;4968991;28;20207;-70
2022/08/23 01:55:21;;;;;;;1.10;1.10;;;;;;;;;;4950259;29;20223;-69
2022/08/23 01:57:52;;;;;;;1.15;1.15;;;;;;;;;;4964243;28;20221;-69
2022/08/23 02:00:21;;;;;;;1.60;1.50;;;;;;;;;;4968498;28;20286;-69
2022/08/23 02:02:48;;;;;;;2.75;1.15;;;;;;;;;;4969082;28;20572;-69
2022/08/23 02:05:16;;;;;;;1.17;1.17;;;;;;;;;;4968952;28;20214;-69
2022/08/23 02:07:43;;;;;;;1.48;1.48;;;;;;;;;;4968864;28;20558;-69
2022/08/23 02:10:10;;;;;;;1.23;1.20;;;;;;;;;;4970903;28;20577;-70
2022/08/23 02:12:37;;;;;;;1.33;1.23;;;;;;;;;;4981498;28;20310;-70
2022/08/23 02:15:06;;;;;;;1.30;1.00;;;;;;;;;;4969001;28;20212;-69
2022/08/23 02:17:33;;;;;;;1.50;1.50;;;;;;;;;;4968596;28;20808;-70
2022/08/23 02:20:03;;;;;;;1.17;1.08;;;;;;;;;;4967730;28;20238;-70
2022/08/23 02:22:30;;;;;;;1.15;1.15;;;;;;;;;;4969240;28;20221;-70
2022/08/23 02:24:57;;;;;;;1.45;1.42;;;;;;;;;;4968591;28;20665;-70
2022/08/23 02:27:24;;;;;;;1.17;1.17;;;;;;;;;;4969149;28;20324;-70
2022/08/23 02:29:51;;;;;;;1.40;1.35;;;;;;;;;;4971459;28;20251;-70
2022/08/23 02:32:20;;;;;;;3.97;1.40;;;;;;;;;;4971967;28;20211;-69
2022/08/23 02:34:47;;;;;;;1.27;1.27;;;;;;;;;;4972402;28;20338;-69
2022/08/23 02:37:14;;;;;;;1.48;1.38;;;;;;;;;;4972376;28;20233;-70
2022/08/23 02:39:42;;;;;;;1.48;1.40;;;;;;;;;;4971817;28;20217;-69
2022/08/23 02:42:09;;;;;;;0.90;0.90;;;;;;;;;;4972220;28;20309;-70
2022/08/23 02:44:36;;;;;;;1.25;1.25;;;;;;;;;;4972043;28;20214;-69
2022/08/23 02:47:06;;;;;;;1.50;1.50;;;;;;;;;;4971953;28;20222;-69
2022/08/23 02:49:34;;;;;;;1.70;1.60;;;;;;;;;;4971911;28;20283;-69
2022/08/23 02:52:01;;;;;;;1.33;1.23;;;;;;;;;;4971992;28;20207;-69
2022/08/23 02:54:29;;;;;;;1.23;1.23;;;;;;;;;;4971971;28;20215;-70
2022/08/23 02:56:56;;;;;;;1.38;1.10;;;;;;;;;;4970585;28;20414;-69
2022/08/23 02:59:23;;;;;;;1.27;1.27;;;;;;;;;;4971667;28;20207;-70
2022/08/23 03:01:50;;;;;;;1.77;1.48;;;;;;;;;;4971673;28;20211;-70
2022/08/23 03:04:17;;;;;;;1.15;1.08;;;;;;;;;;4976266;28;20221;-69
2022/08/23 03:06:46;;;;;;;1.17;1.17;;;;;;;;;;4968239;28;20602;-69
2022/08/23 03:09:13;;;;;;;1.30;1.30;;;;;;;;;;4969779;28;20218;-69
2022/08/23 03:11:44;;;;;;;1.58;1.48;;;;;;;;;;4971270;28;20225;-69
2022/08/23 03:14:11;;;;;;;1.40;1.30;;;;;;;;;;4970884;28;20257;-69
2022/08/23 03:16:39;;;;;;;1.67;1.58;;;;;;;;;;4971485;28;20237;-69
2022/08/23 03:19:06;;;;;;;1.77;1.20;;;;;;;;;;4971003;28;20692;-71
2022/08/23 03:21:33;;;;;;;1.30;1.30;;;;;;;;;;4971300;28;20219;-69
2022/08/23 03:24:02;;;;;;;1.30;1.30;;;;;;;;;;4965609;28;20199;-69
2022/08/23 03:26:29;;;;;;;2.60;1.42;;;;;;;;;;4964343;28;20230;-69
2022/08/23 03:28:56;;;;;;;1.63;1.52;;;;;;;;;;4964046;28;20206;-69
2022/08/23 03:31:23;;;;;;;1.48;1.35;;;;;;;;;;4966697;28;20202;-69
2022/08/23 03:33:50;;;;;;;1.55;1.40;;;;;;;;;;4963034;28;20307;-70
2022/08/23 03:36:17;;;;;;;1.85;1.30;;;;;;;;;;4962575;28;20210;-69
2022/08/23 03:38:44;;;;;;;1.15;1.15;;;;;;;;;;4960777;28;20207;-69
2022/08/23 03:41:13;;;;;;;1.83;1.83;;;;;;;;;;4960873;28;20225;-69
2022/08/23 03:43:40;;;;;;;1.70;1.60;;;;;;;;;;4961705;28;20206;-68
2022/08/23 03:46:07;;;;;;;1.67;1.60;;;;;;;;;;4962637;28;20223;-68
2022/08/23 03:48:35;;;;;;;1.50;1.50;;;;;;;;;;4961290;28;20218;-69
2022/08/23 03:51:02;;;;;;;1.50;1.40;;;;;;;;;;4963241;28;20207;-69
2022/08/23 03:53:29;;;;;;;1.63;1.63;;;;;;;;;;4961039;28;20351;-69
2022/08/23 03:55:56;;;;;;;2.05;1.50;;;;;;;;;;4962909;28;20301;-69
2022/08/23 03:58:26;;;;;;;2.08;1.65;;;;;;;;;;4964198;28;20210;-69
2022/08/23 04:00:54;;;;;;;1.60;1.50;;;;;;;;;;4967599;28;20567;-69
2022/08/23 04:03:21;;;;;;;1.17;1.15;;;;;;;;;;4961574;28;20607;-69
2022/08/23 04:05:48;;;;;;;1.17;1.17;;;;;;;;;;4966736;28;20274;-69
2022/08/23 04:08:15;;;;;;;1.33;1.33;;;;;;;;;;4965973;28;20210;-69
2022/08/23 04:10:42;;;;;;;1.55;1.50;;;;;;;;;;4967605;28;20209;-69
2022/08/23 04:13:10;;;;;;;1.65;1.63;;;;;;;;;;4966643;28;20214;-69
2022/08/23 04:15:38;;;;;;;1.20;1.20;;;;;;;;;;4965156;28;20256;-69
2022/08/23 04:18:06;;;;;;;1.33;1.30;;;;;;;;;;4968057;28;20281;-68
2022/08/23 04:20:33;;;;;;;1.75;1.70;;;;;;;;;;4966282;28;20329;-69
2022/08/23 04:23:01;;;;;;;1.98;1.30;;;;;;;;;;4964721;28;20646;-69
2022/08/23 04:25:30;;;;;;;1.45;1.45;;;;;;;;;;4963702;28;20276;-70
2022/08/23 04:27:57;;;;;;;2.55;1.65;;;;;;;;;;4963509;28;20230;-68
2022/08/23 04:30:24;;;;;;;1.30;1.30;;;;;;;;;;4965500;28;20210;-68
2022/08/23 04:32:52;;;;;;;2.35;1.60;;;;;;;;;;4965518;28;20261;-68
2022/08/23 04:35:19;;;;;;;1.88;1.77;;;;;;;;;;4967229;28;20206;-68
2022/08/23 04:37:46;;;;;;;1.77;1.67;;;;;;;;;;4968519;28;20903;-69
2022/08/23 04:42:58;;;;;;;1.52;1.52;;;;;;;;;;4964253;28;20686;-68
2022/08/23 04:45:26;;;;;;;1.60;1.60;;;;;;;;;;4962727;28;20206;-71
2022/08/23 04:47:54;;;;;;;1.48;1.48;;;;;;;;;;4964629;28;20336;-69
2022/08/23 04:50:21;;;;;;;1.52;1.48;;;;;;;;;;4961150;28;20207;-69
2022/08/23 04:52:48;;;;;;;1.20;1.20;;;;;;;;;;4965995;28;20209;-68
2022/08/23 04:55:15;;;;;;;3.38;1.40;;;;;;;;;;4969982;28;20214;-69
2022/08/23 04:57:43;;;;;;;1.80;1.70;;;;;;;;;;4969535;28;20202;-68
2022/08/23 05:00:11;;;;;;;1.88;1.77;;;;;;;;;;4969896;28;20210;-67
2022/08/23 05:02:39;;;;;;;2.40;1.60;;;;;;;;;;4969396;28;20234;-69
2022/08/23 05:05:09;;;;;;;1.70;1.70;;;;;;;;;;4967598;28;20233;-68
2022/08/23 05:07:36;;;;;;;1.50;1.50;;;;;;;;;;4968395;28;20612;-69
2022/08/23 05:10:03;;;;;;;2.17;1.70;;;;;;;;;;4968045;28;20202;-68
2022/08/23 05:12:30;;;;;;;1.67;1.30;;;;;;;;;;4968432;28;20202;-68
2022/08/23 05:14:57;;;;;;;1.75;1.67;;;;;;;;;;4967817;28;20202;-68
2022/08/23 05:17:24;;;;;;;1.48;1.48;;;;;;;;;;4966674;28;20230;-68
2022/08/23 05:19:51;;;;;;;1.70;1.70;;;;;;;;;;4964615;28;20237;-69
2022/08/23 05:22:20;;;;;;;1.60;1.60;;;;;;;;;;4967713;28;20218;-69
2022/08/23 05:24:47;;;;;;;1.13;1.13;;;;;;;;;;4966990;28;20209;-68
2022/08/23 05:27:14;;;;;;;1.65;1.55;;;;;;;;;;4967071;28;20574;-68
2022/08/23 05:29:41;;;;;;;1.52;1.52;;;;;;;;;;4962371;28;20284;-68
2022/08/23 05:32:08;;;;;;;1.92;1.77;;;;;;;;;;4965470;28;20225;-68
2022/08/23 05:34:36;;;;;;;1.58;1.52;;;;;;;;;;4965507;28;20210;-69
2022/08/23 05:37:03;;;;;;;3.67;1.80;;;;;;;;;;4965594;28;20561;-68
2022/08/23 05:39:31;;;;;;;1.33;1.33;;;;;;;;;;4966446;28;20209;-69
2022/08/23 05:41:58;;;;;;;1.77;1.67;;;;;;;;;;4966693;28;20202;-68
2022/08/23 05:44:25;;;;;;;2.35;2.25;;;;;;;;;;4965327;28;20681;-69
2022/08/23 05:46:52;;;;;;;1.83;1.73;;;;;;;;;;4965613;28;20248;-68
2022/08/23 05:49:19;;;;;;;2.08;1.90;;;;;;;;;;4967380;28;20214;-69
2022/08/23 05:51:46;;;;;;;1.88;1.88;;;;;;;;;;4964772;28;20214;-67
2022/08/23 05:54:13;;;;;;;2.47;2.28;;;;;;;;;;4964135;28;20321;-67
2022/08/23 05:56:43;;;;;;;1.85;1.75;;;;;;;;;;4965423;28;20200;-71
2022/08/23 05:59:11;;;;;;;3.60;2.00;;;;;;;;;;4966686;28;20211;-70
2022/08/23 06:01:39;;;;;;;2.60;1.83;;;;;;;;;;4965002;28;20210;-68
2022/08/23 06:04:07;;;;;;;1.90;1.80;;;;;;;;;;4969249;28;20203;-65
2022/08/23 06:06:35;;;;;;;1.52;1.52;;;;;;;;;;4968466;28;20211;-69
2022/08/23 06:09:02;;;;;;;2.03;2.03;;;;;;;;;;4970664;28;20265;-69
2022/08/23 06:11:30;;;;;;;3.45;1.80;;;;;;;;;;4967970;28;20226;-69
2022/08/23 06:13:59;;;;;;;3.13;1.83;;;;;;;;;;4970083;28;20221;-69
2022/08/23 06:16:27;;;;;;;8.35;1.98;;;;;;;;;;4968971;28;20684;-69
2022/08/23 06:18:56;;;;;;;1.65;1.65;;;;;;;;;;4969156;28;20561;-70
2022/08/23 06:21:23;;;;;;;1.50;1.50;;;;;;;;;;4970428;28;20206;-71
2022/08/23 06:23:51;;;;;;;1.27;1.27;;;;;;;;;;4970293;28;20202;-70
2022/08/23 06:26:19;;;;;;;1.67;1.58;;;;;;;;;;4969114;28;20202;-70
2022/08/23 06:28:47;;;;;;;2.80;1.40;;;;;;;;;;4969571;28;20252;-69
2022/08/23 06:31:43;;;;;;;1.30;1.30;;;;;;;;;;4968698;28;20217;-69
2022/08/23 06:34:03;;;;;;;1.20;1.20;;;;;;;;;;4962085;28;20273;-70
2022/08/23 06:36:30;;;;;;;1.40;1.23;;;;;;;;;;4968381;28;20288;-70
2022/08/23 06:38:57;;;;;;;1.40;1.30;;;;;;;;;;4969007;28;20199;-70
2022/08/23 06:41:24;;;;;;;1.25;1.17;;;;;;;;;;4965712;28;20209;-69
2022/08/23 06:46:50;;;;;;;1.27;1.17;;;;;;;;;;4965734;28;20308;-70
2022/08/23 06:49:17;;;;;;;1.30;1.30;;;;;;;;;;4969819;28;20269;-70
2022/08/23 06:51:46;;;;;;;1.45;1.35;;;;;;;;;;4969183;28;20214;-69
2022/08/23 06:54:18;;;;;;;1.70;1.60;;;;;;;;;;4969942;28;20288;-69
2022/08/23 06:56:45;;;;;;;1.35;1.30;;;;;;;;;;4969923;28;20660;-70
2022/08/23 06:59:12;;;;;;;2.38;1.27;;;;;;;;;;4968449;28;20206;-69
2022/08/23 07:01:41;;;;;;;1.20;1.20;;;;;;;;;;4972415;28;20230;-70
2022/08/23 07:04:10;;;;;;;2.05;1.17;;;;;;;;;;4968247;28;20241;-69
2022/08/23 07:06:40;;;;;;;1.42;1.33;;;;;;;;;;4971195;28;20237;-68
2022/08/23 07:09:08;;;;;;;3.67;1.35;;;;;;;;;;4965108;28;20226;-70
2022/08/23 07:11:35;;;;;;;1.20;1.20;;;;;;;;;;4965447;28;20604;-69
2022/08/23 07:14:03;;;;;;;1.10;1.10;;;;;;;;;;4963817;28;20261;-70
2022/08/23 07:16:32;;;;;;;1.08;1.08;;;;;;;;;;4968028;28;20202;-69
2022/08/23 07:18:59;;;;;;;1.52;1.50;;;;;;;;;;4968558;28;20640;-69
2022/08/23 07:21:28;;;;;;;1.75;1.10;;;;;;;;;;4967227;28;20710;-70
2022/08/23 07:23:55;;;;;;;1.20;1.20;;;;;;;;;;4964828;28;20298;-69
2022/08/23 07:26:23;;;;;;;1.30;1.30;;;;;;;;;;4966393;28;21115;-70
2022/08/23 07:28:50;;;;;;;1.58;1.48;;;;;;;;;;4968802;28;20240;-69
2022/08/23 07:31:19;;;;;;;1.60;1.30;;;;;;;;;;4965922;28;20211;-70
2022/08/23 07:33:47;;;;;;;1.20;1.20;;;;;;;;;;4967896;28;20242;-70
2022/08/23 07:36:15;;;;;;;2.20;1.48;;;;;;;;;;4964532;28;20273;-71
2022/08/23 07:38:44;;;;;;;1.25;1.10;;;;;;;;;;4968818;28;20234;-70
2022/08/23 07:41:11;;;;;;;1.42;1.30;;;;;;;;;;4969000;28;20677;-70
2022/08/23 07:43:38;;;;;;;1.20;1.20;;;;;;;;;;4967774;28;20753;-69
2022/08/23 07:46:06;;;;;;;1.38;1.30;;;;;;;;;;4968374;28;20225;-70
2022/08/23 07:48:33;;;;;;;1.05;1.05;;;;;;;;;;4965416;28;20241;-69
2022/08/23 07:51:02;;;;;;;1.08;1.08;;;;;;;;;;4966512;28;20211;-69
2022/08/23 07:53:29;;;;;;;1.10;1.10;;;;;;;;;;4965572;28;20657;-70
2022/08/23 07:55:57;;;;;;;1.33;1.33;;;;;;;;;;4967878;28;20222;-70
2022/08/23 07:58:26;;;;;;;1.33;1.05;;;;;;;;;;4966594;28;20233;-68
2022/08/23 08:00:53;;;;;;;1.52;1.40;;;;;;;;;;4968320;28;20249;-68
2022/08/23 08:03:21;;;;;;;1.15;1.15;;;;;;;;;;4967051;28;20207;-69
2022/08/23 08:05:48;;;;;;;1.00;1.00;;;;;;;;;;4966425;28;20261;-67
2022/08/23 08:08:15;;;;;;;1.00;1.00;;;;;;;;;;4968220;28;20314;-68
2022/08/23 08:10:43;;;;;;;1.00;1.00;;;;;;;;;;4965102;28;20285;-67
2022/08/23 08:13:11;;;;;;;1.38;1.17;;;;;;;;;;4966231;28;20215;-68
2022/08/23 08:15:41;;;;;;;0.90;0.90;;;;;;;;;;4966617;28;20214;-69
2022/08/23 08:18:08;;;;;;;1.40;1.08;;;;;;;;;;4968013;28;20234;-68
2022/08/23 08:20:36;;;;;;;1.33;1.33;;;;;;;;;;4966949;28;20296;-67
2022/08/23 08:23:03;;;;;;;1.20;1.20;;;;;;;;;;4966421;28;20216;-69
2022/08/23 08:25:33;;;;;;;1.10;1.10;;;;;;;;;;4967551;28;20269;-68
2022/08/23 08:28:00;;;;;;;1.55;1.33;;;;;;;;;;4965633;28;20337;-68
2022/08/23 08:30:28;;;;;;;1.25;1.25;;;;;;;;;;4966237;28;20588;-67
2022/08/23 08:32:55;;;;;;;1.30;1.30;;;;;;;;;;4966740;28;20209;-68
2022/08/23 08:35:23;;;;;;;2.30;1.23;;;;;;;;;;4966527;28;20206;-68
2022/08/23 08:37:50;;;;;;;1.23;1.23;;;;;;;;;;4964054;28;20293;-68
2022/08/23 08:40:19;;;;;;;1.45;1.45;;;;;;;;;;4966733;28;20260;-67
2022/08/23 08:42:54;;;;;;;1.17;1.17;;;;;;;;;;4969953;28;20245;-69
2022/08/23 08:45:24;;;;;;;1.27;1.27;;;;;;;;;;4981666;28;20248;-68
2022/08/23 08:47:56;;;;;;;1.35;1.35;;;;;;;;;;4965482;28;20309;-69
2022/08/23 08:50:26;;;;;;;2.22;1.48;;;;;;;;;;4966295;28;20261;-69
2022/08/23 08:52:55;;;;;;;1.35;1.23;;;;;;;;;;4967049;28;20305;-69
2022/08/23 08:55:25;;;;;;;1.10;1.10;;;;;;;;;;4962764;28;20853;-68
2022/08/23 08:57:53;;;;;;;1.10;1.00;;;;;;;;;;4965376;28;20198;-68
2022/08/23 09:00:23;;;;;;;1.52;1.42;;;;;;;;;;4968544;28;20206;-69
2022/08/23 09:02:51;;;;;;;1.45;1.45;;;;;;;;;;4968830;28;20293;-68
2022/08/23 09:05:21;;;;;;;1.90;1.45;;;;;;;;;;4962482;28;20588;-68
2022/08/23 09:07:55;;;;;;;1.30;1.30;;;;;;;;;;4968054;28;20218;-68
2022/08/23 09:10:34;;;;;;;1.00;1.00;;;;;;;;;;4964273;28;20296;-71
2022/08/23 09:13:04;;;;;;;1.33;1.33;;;;;;;;;;4965109;28;20210;-64
2022/08/23 09:15:38;;;;;;;1.40;1.40;;;;;;;;;;4966123;28;20210;-69
2022/08/23 09:18:08;;;;;;;1.35;1.25;;;;;;;;;;4964322;28;20284;-69
2022/08/23 09:20:38;;;;;;;1.10;1.10;;;;;;;;;;4964419;28;20257;-69
2022/08/23 09:23:07;;;;;;;1.13;1.13;;;;;;;;;;4962290;28;20233;-69
2022/08/23 09:25:34;;;;;;;1.63;1.55;;;;;;;;;;4966526;28;20588;-69
2022/08/23 09:28:02;;;;;;;1.50;1.50;;;;;;;;;;4966805;28;20392;-68
2022/08/23 09:30:44;;;;;;;1.15;1.10;;;;;;;;;;4966697;28;20218;-69
2022/08/23 09:33:15;;;;;;;1.88;1.77;;;;;;;;;;4969258;28;20218;-68
2022/08/23 09:35:43;;;;;;;1.65;1.60;;;;;;;;;;4968694;28;20691;-69
2022/08/23 09:38:19;;;;;;;7.43;1.88;;;;;;;;;;4967320;28;20206;-69
2022/08/23 09:40:47;;;;;;;1.48;1.48;;;;;;;;;;4974430;28;20669;-68
2022/08/23 09:43:15;;;;;;;1.40;1.30;;;;;;;;;;4972854;28;20214;-68
2022/08/23 09:45:53;;;;;;;1.30;1.30;;;;;;;;;;4969753;28;20587;-69
2022/08/23 09:48:33;;;;;;;1.52;1.52;;;;;;;;;;4950378;29;20325;-68
2022/08/23 09:51:06;;;;;;;1.35;1.35;;;;;;;;;;4958069;28;20214;-68
2022/08/23 09:53:33;;;;;;;1.30;1.30;;;;;;;;;;4971108;28;20205;-69
2022/08/23 09:56:11;;;;;;;1.60;1.60;;;;;;;;;;4970178;28;20198;-69
2022/08/23 09:58:40;;;;;;;2.35;1.55;;;;;;;;;;4968814;28;20210;-69
2022/08/23 10:01:10;;;;;;;1.40;1.40;;;;;;;;;;4970674;28;20728;-69
2022/08/23 10:03:38;;;;;;;1.33;1.33;;;;;;;;;;4972633;28;20206;-69
2022/08/23 10:06:08;;;;;;;1.60;1.60;;;;;;;;;;4970251;28;20230;-69
2022/08/23 10:08:36;;;;;;;1.50;1.40;;;;;;;;;;4969183;28;20580;-70
2022/08/23 10:11:08;;;;;;;1.42;1.42;;;;;;;;;;4970395;28;20305;-70
2022/08/23 10:13:43;;;;;;;1.42;1.27;;;;;;;;;;4969992;28;20317;-71
2022/08/23 10:16:17;;;;;;;1.65;1.40;;;;;;;;;;4968715;28;20268;-70
2022/08/23 10:18:49;;;;;;;1.63;1.45;;;;;;;;;;4972192;28;20226;-70
2022/08/23 10:21:21;;;;;;;1.58;1.58;;;;;;;;;;4965914;28;20774;-70
2022/08/23 10:23:55;;;;;;;1.33;1.33;;;;;;;;;;4970454;28;20677;-71
2022/08/23 10:26:25;;;;;;;1.58;1.52;;;;;;;;;;4969855;28;20654;-70
2022/08/23 10:31:44;;;;;;;1.73;1.60;;;;;;;;;;4969100;28;20256;-70
2022/08/23 10:34:18;;;;;;;1.60;1.60;;;;;;;;;;4966286;28;20210;-69
2022/08/23 10:36:52;;;;;;;1.70;1.60;;;;;;;;;;4967341;28;20214;-70
2022/08/23 10:39:25;;;;;;;1.73;1.50;;;;;;;;;;4970011;28;20553;-70
2022/08/23 10:41:54;;;;;;;1.50;1.50;;;;;;;;;;4969979;28;20214;-70
2022/08/23 10:44:23;;;;;;;1.45;1.45;;;;;;;;;;4967830;28;20350;-70
2022/08/23 10:46:54;;;;;;;1.33;1.33;;;;;;;;;;4966413;28;20242;-70
2022/08/23 10:49:22;;;;;;;1.60;1.50;;;;;;;;;;4971371;28;20720;-68
2022/08/23 10:51:51;;;;;;;1.80;1.80;;;;;;;;;;4969097;28;20219;-68
2022/08/23 10:54:28;;;;;;;1.30;1.30;;;;;;;;;;4965168;28;20210;-67
2022/08/23 10:56:55;;;;;;;1.40;1.30;;;;;;;;;;4965700;28;20210;-68
2022/08/23 10:59:24;;;;;;;1.73;1.73;;;;;;;;;;4968862;28;20202;-68
2022/08/23 11:01:53;;;;;;;2.33;1.67;;;;;;;;;;4971106;28;20677;-68
2022/08/23 11:04:24;;;;;;;1.52;1.52;;;;;;;;;;4968357;28;20690;-68
2022/08/23 11:06:54;;;;;;;1.70;1.60;;;;;;;;;;4969259;28;20224;-67
2022/08/23 11:09:54;;;;;;;1.77;1.67;;;;;;;;;;4968951;28;20245;-70
2022/08/23 11:12:26;;;;;;;1.58;1.58;;;;;;;;;;4910362;29;20205;-68
2022/08/23 11:15:05;;;;;;;1.60;1.60;;;;;;;;;;4908794;29;20200;-66
2022/08/23 11:17:35;;;;;;;2.03;1.90;;;;;;;;;;4941680;28;20230;-70
2022/08/23 11:20:03;;;;;;;1.60;1.60;;;;;;;;;;4968442;28;20236;-68
2022/08/23 11:22:33;;;;;;;1.60;1.60;;;;;;;;;;4969938;28;20639;-66
2022/08/23 11:25:04;;;;;;;1.63;1.48;;;;;;;;;;4968219;28;20713;-69
2022/08/23 11:27:33;;;;;;;2.20;1.55;;;;;;;;;;4968659;28;20229;-69
2022/08/23 11:30:15;;;;;;;1.55;1.55;;;;;;;;;;4967987;28;20641;-68
2022/08/23 11:32:45;;;;;;;1.70;1.60;;;;;;;;;;4968350;28;20213;-69
2022/08/23 11:35:25;;;;;;;2.28;1.50;;;;;;;;;;4967288;28;20305;-67
2022/08/23 11:37:55;;;;;;;1.35;1.35;;;;;;;;;;4969884;28;20210;-68
2022/08/23 11:40:54;;;;;;;2.67;2.22;;;;;;;;;;4966034;28;20202;-66
2022/08/23 11:43:24;;;;;;;1.70;1.60;;;;;;;;;;4925998;29;20314;-66
2022/08/23 11:45:51;;;;;;;1.70;1.60;;;;;;;;;;4959481;28;20210;-67
2022/08/23 11:48:19;;;;;;;1.58;1.58;;;;;;;;;;4970777;28;20218;-67
2022/08/23 11:50:57;;;;;;;1.52;1.50;;;;;;;;;;4968529;28;20233;-66
2022/08/23 11:53:46;;;;;;;1.38;1.38;;;;;;;;;;4969927;28;20224;-66
2022/08/23 11:56:28;;;;;;;1.42;1.42;;;;;;;;;;4943857;28;20216;-66
2022/08/23 11:59:02;;;;;;;1.63;1.55;;;;;;;;;;4933823;28;20248;-66
2022/08/23 12:01:32;;;;;;;1.30;1.30;;;;;;;;;;4967029;28;20214;-67
2022/08/23 12:04:00;;;;;;;1.58;1.40;;;;;;;;;;4969933;28;20272;-66
2022/08/23 12:06:37;;;;;;;1.52;1.52;;;;;;;;;;4967502;28;20213;-66
2022/08/23 12:09:09;;;;;;;1.40;1.40;;;;;;;;;;4969217;28;20225;-66
2022/08/23 12:11:55;;;;;;;1.40;1.40;;;;;;;;;;4967718;28;20214;-67
2022/08/23 12:14:49;;;;;;;1.33;1.33;;;;;;;;;;4967670;28;20224;-67
2022/08/23 12:17:31;;;;;;;1.50;1.50;;;;;;;;;;4950802;28;20708;-67
2022/08/23 12:19:59;;;;;;;1.63;1.52;;;;;;;;;;4948119;29;20733;-67
2022/08/23 12:22:52;;;;;;;1.52;1.42;;;;;;;;;;5079981;28;20629;-68
2022/08/23 12:25:22;;;;;;;1.40;1.40;;;;;;;;;;5069820;28;20209;-68
2022/08/23 12:27:50;;;;;;;1.40;1.40;;;;;;;;;;5084657;28;20255;-67
2022/08/23 12:30:20;;;;;;;1.30;1.30;;;;;;;;;;5081476;28;20820;-67
2022/08/23 12:32:52;;;;;;;1.30;1.30;;;;;;;;;;5084934;28;20300;-67
2022/08/23 12:35:28;;;;;;;1.60;1.60;;;;;;;;;;5071558;28;20206;-67
2022/08/23 12:37:59;;;;;;;1.20;1.20;;;;;;;;;;5066260;28;20206;-67
2022/08/23 12:40:30;;;;;;;1.25;1.25;;;;;;;;;;5080816;28;20221;-68
2022/08/23 12:43:03;;;;;;;1.58;1.50;;;;;;;;;;5081885;28;20290;-68
2022/08/23 12:45:36;;;;;;;2.08;1.80;;;;;;;;;;5080431;28;20205;-67
2022/08/23 12:48:03;;;;;;;2.53;1.48;;;;;;;;;;5082951;28;20259;-67
2022/08/23 12:50:32;;;;;;;1.50;1.50;;;;;;;;;;5082137;28;20233;-67
2022/08/23 12:53:01;;;;;;;1.40;1.40;;;;;;;;;;5081505;28;20265;-67
2022/08/23 12:55:32;;;;;;;1.30;1.30;;;;;;;;;;5082568;28;20206;-67
2022/08/23 12:57:59;;;;;;;1.58;1.48;;;;;;;;;;5081130;28;20209;-66
2022/08/23 13:00:28;;;;;;;1.75;1.65;;;;;;;;;;5084571;28;20537;-66
2022/08/23 13:02:57;;;;;;;1.20;1.15;;;;;;;;;;5085159;28;20240;-66
2022/08/23 13:05:42;;;;;;;1.55;1.55;;;;;;;;;;5082562;28;20249;-65
2022/08/23 13:08:10;;;;;;;1.50;1.50;;;;;;;;;;5064700;28;20723;-64
2022/08/23 13:10:40;;;;;;;1.40;1.30;;;;;;;;;;5068701;28;20580;-64
2022/08/23 13:13:09;;;;;;;1.65;1.58;;;;;;;;;;5062328;28;20210;-64
2022/08/23 13:15:40;;;;;;;1.15;1.15;;;;;;;;;;5069196;28;20215;-64
2022/08/23 13:18:07;;;;;;;1.58;1.58;;;;;;;;;;5063561;28;20238;-65
2022/08/23 13:20:35;;;;;;;1.83;1.70;;;;;;;;;;5065951;28;20246;-64
2022/08/23 13:23:03;;;;;;;1.63;1.55;;;;;;;;;;5079241;28;20270;-63
2022/08/23 13:25:32;;;;;;;1.52;1.50;;;;;;;;;;5082543;28;20209;-63
2022/08/23 13:28:01;;;;;;;1.50;1.42;;;;;;;;;;5077767;28;20682;-64
2022/08/23 13:30:30;;;;;;;1.30;1.30;;;;;;;;;;5063078;28;20769;-67
2022/08/23 13:33:16;;;;;;;2.08;1.83;;;;;;;;;;5060523;28;20662;-67
2022/08/23 13:35:44;;;;;;;1.40;1.40;;;;;;;;;;5051102;28;20208;-67
2022/08/23 13:38:15;;;;;;;1.27;1.27;;;;;;;;;;5065691;28;20207;-67
2022/08/23 13:40:44;;;;;;;1.20;1.20;;;;;;;;;;5069876;28;20217;-67
2022/08/23 13:43:13;;;;;;;1.60;1.60;;;;;;;;;;5056071;28;20734;-67
2022/08/23 13:45:45;;;;;;;1.42;1.42;;;;;;;;;;5070782;28;20685;-67
2022/08/23 13:48:14;;;;;;;1.50;1.40;;;;;;;;;;5059904;28;20194;-67
2022/08/23 13:50:42;;;;;;;3.00;1.50;;;;;;;;;;5052038;28;20284;-67
2022/08/23 13:53:09;;;;;;;1.52;1.42;;;;;;;;;;5058534;28;20213;-67
2022/08/23 13:55:41;;;;;;;1.60;1.50;;;;;;;;;;5062712;28;20206;-67
2022/08/23 13:58:10;;;;;;;1.35;1.35;;;;;;;;;;5045809;28;20253;-68
2022/08/23 14:00:39;;;;;;;1.45;1.40;;;;;;;;;;5042690;28;20219;-67
2022/08/23 14:03:06;;;;;;;1.52;1.50;;;;;;;;;;5046251;28;20203;-67
2022/08/23 14:05:34;;;;;;;1.60;1.60;;;;;;;;;;5057183;28;20214;-67
2022/08/23 14:08:01;;;;;;;1.30;1.10;;;;;;;;;;5056112;28;20641;-67
2022/08/23 14:10:28;;;;;;;1.70;1.40;;;;;;;;;;5050076;28;20681;-67
2022/08/23 14:12:55;;;;;;;1.42;1.33;;;;;;;;;;5066831;28;20210;-68
2022/08/23 14:15:22;;;;;;;1.45;1.45;;;;;;;;;;5070351;28;20218;-68
2022/08/23 14:17:52;;;;;;;1.77;1.70;;;;;;;;;;5068128;28;20244;-67
2022/08/23 14:20:22;;;;;;;1.23;1.23;;;;;;;;;;5053523;28;20210;-67
2022/08/23 14:22:49;;;;;;;1.88;1.08;;;;;;;;;;5050317;28;20234;-66
2022/08/23 14:25:16;;;;;;;1.42;1.42;;;;;;;;;;5048238;28;20215;-66
2022/08/23 14:27:44;;;;;;;1.50;1.50;;;;;;;;;;5056231;28;20207;-67
2022/08/23 14:30:19;;;;;;;1.15;1.15;;;;;;;;;;5047916;28;20214;-67
2022/08/23 14:32:46;;;;;;;1.48;1.48;;;;;;;;;;5064863;28;20208;-63
2022/08/23 14:35:14;;;;;;;1.13;1.13;;;;;;;;;;5067664;28;20585;-67
2022/08/23 14:37:41;;;;;;;1.33;1.23;;;;;;;;;;5049018;28;20198;-67
2022/08/23 14:40:09;;;;;;;1.50;1.40;;;;;;;;;;5068851;28;20203;-67
2022/08/23 14:42:36;;;;;;;1.30;1.30;;;;;;;;;;5061393;28;20683;-67
2022/08/23 14:45:03;;;;;;;1.52;1.42;;;;;;;;;;5066834;28;20206;-68
2022/08/23 14:47:30;;;;;;;1.33;1.33;;;;;;;;;;5058016;28;20207;-67
2022/08/23 14:49:57;;;;;;;1.13;1.02;;;;;;;;;;5049711;28;20219;-67
2022/08/23 14:52:25;;;;;;;1.25;1.25;;;;;;;;;;5057491;28;20203;-67
2022/08/23 14:54:52;;;;;;;1.52;1.52;;;;;;;;;;5069206;28;20213;-67
2022/08/23 14:57:19;;;;;;;1.17;1.17;;;;;;;;;;5056161;28;20202;-66
2022/08/23 14:59:47;;;;;;;3.50;1.23;;;;;;;;;;5053050;28;20203;-66
2022/08/23 15:02:15;;;;;;;1.40;1.35;;;;;;;;;;5047269;28;20549;-66
2022/08/23 15:04:42;;;;;;;1.10;1.10;;;;;;;;;;5050270;28;20876;-66
2022/08/23 15:07:09;;;;;;;1.50;1.25;;;;;;;;;;5061956;28;20210;-66
2022/08/23 15:09:38;;;;;;;2.88;1.50;;;;;;;;;;5048325;28;20298;-66